createdAt,value
2023-01-07T00:02:05.010Z,22.70
2023-01-07T00:04:36.741Z,24.70
2023-01-07T00:07:09.925Z,22.00
2023-01-07T00:09:42.784Z,22.20
2023-01-07T00:12:14.672Z,22.90
2023-01-07T00:14:46.648Z,22.20
2023-01-07T00:17:18.388Z,20.30
2023-01-07T00:19:50.138Z,19.40
2023-01-07T00:22:21.789Z,18.40
2023-01-07T00:24:53.695Z,23.60
2023-01-07T00:27:25.609Z,23.40
2023-01-07T00:29:57.303Z,22.40
2023-01-07T00:32:50.937Z,24.00
2023-01-07T00:35:23.452Z,19.90
2023-01-07T00:37:56.130Z,20.60
2023-01-07T00:40:28.095Z,19.00
2023-01-07T00:43:02.463Z,19.70
2023-01-07T00:45:36.468Z,20.60
2023-01-07T00:48:08.797Z,21.60
2023-01-07T00:50:41.291Z,20.40
2023-01-07T00:53:13.591Z,22.40
2023-01-07T00:55:45.299Z,21.20
2023-01-07T00:58:26.720Z,19.30
2023-01-07T01:01:00.172Z,23.70
2023-01-07T01:03:33.485Z,22.10
2023-01-07T01:06:07.862Z,22.50
2023-01-07T01:08:41.313Z,17.30
2023-01-07T01:11:14.968Z,19.60
2023-01-07T01:16:19.215Z,23.60
2023-01-07T01:18:50.898Z,21.40
2023-01-07T01:21:22.612Z,23.40
2023-01-07T01:23:54.568Z,24.20
2023-01-07T01:26:26.538Z,21.00
2023-01-07T01:28:58.641Z,19.80
2023-01-07T01:31:30.560Z,20.60
2023-01-07T01:34:02.325Z,22.70
2023-01-07T01:36:34.263Z,22.30
2023-01-07T01:39:06.206Z,28.20
2023-01-07T01:41:38.384Z,23.00
2023-01-07T01:44:41.414Z,20.20
2023-01-07T01:47:20.754Z,20.20
2023-01-07T01:49:59.589Z,20.00
2023-01-07T01:52:38.663Z,22.50
2023-01-07T01:55:14.839Z,19.80
2023-01-07T01:57:48.116Z,24.10
2023-01-07T02:00:20.352Z,23.00
2023-01-07T02:02:56.861Z,21.80
2023-01-07T02:05:43.212Z,20.30
2023-01-07T02:08:21.968Z,23.60
2023-01-07T02:11:12.404Z,22.80
2023-01-07T02:13:59.376Z,22.30
2023-01-07T02:16:42.699Z,22.20
2023-01-07T02:20:09.490Z,21.60
2023-01-07T02:23:23.933Z,22.20
2023-01-07T02:26:13.831Z,22.60
2023-01-07T02:29:09.894Z,18.40
2023-01-07T02:32:04.217Z,19.20
2023-01-07T02:34:46.835Z,20.30
2023-01-07T02:37:27.777Z,21.80
2023-01-07T02:40:07.662Z,20.20
2023-01-07T02:42:46.911Z,21.70
2023-01-07T02:45:28.384Z,24.70
2023-01-07T02:48:03.358Z,22.60
2023-01-07T02:50:35.284Z,24.70
2023-01-07T02:53:09.205Z,22.00
2023-01-07T02:55:48.582Z,27.10
2023-01-07T02:59:03.508Z,32.20
2023-01-07T03:01:57.460Z,32.20
2023-01-07T03:04:51.380Z,31.20
2023-01-07T03:07:38.301Z,27.00
2023-01-07T03:10:19.834Z,26.30
2023-01-07T03:12:56.655Z,30.20
2023-01-07T03:15:33.777Z,30.60
2023-01-07T03:18:10.438Z,31.70
2023-01-07T03:20:45.523Z,29.50
2023-01-07T03:23:22.911Z,27.70
2023-01-07T03:25:56.999Z,32.30
2023-01-07T03:28:33.214Z,25.90
2023-01-07T03:31:07.077Z,26.80
2023-01-07T03:33:45.464Z,27.30
2023-01-07T03:36:21.510Z,25.70
2023-01-07T03:38:56.114Z,27.10
2023-01-07T03:41:45.610Z,27.00
2023-01-07T03:44:17.415Z,23.90
2023-01-07T03:46:49.615Z,22.50
2023-01-07T03:49:21.462Z,21.00
2023-01-07T03:51:54.757Z,25.00
2023-01-07T03:54:26.732Z,24.80
2023-01-07T03:56:58.487Z,28.10
2023-01-07T03:59:30.294Z,28.00
2023-01-07T04:02:02.300Z,28.50
2023-01-07T04:04:34.281Z,31.70
2023-01-07T04:07:06.070Z,31.20
2023-01-07T04:09:38.035Z,34.80
2023-01-07T04:12:10.343Z,41.90
2023-01-07T04:14:42.522Z,39.80
2023-01-07T04:17:14.471Z,44.70
2023-01-07T04:19:46.619Z,43.00
2023-01-07T04:22:18.263Z,33.40
2023-01-07T04:24:50.012Z,47.00
2023-01-07T04:27:22.201Z,37.40
2023-01-07T04:29:54.245Z,34.50
2023-01-07T04:32:26.076Z,37.60
2023-01-07T04:34:57.965Z,41.30
2023-01-07T04:37:29.834Z,37.50
2023-01-07T04:40:01.554Z,31.40
2023-01-07T04:42:33.332Z,31.10
2023-01-07T04:45:05.719Z,35.90
2023-01-07T04:47:37.469Z,41.90
2023-01-07T04:50:10.975Z,40.10
2023-01-07T04:55:13.364Z,42.10
2023-01-07T04:57:45.648Z,46.80
2023-01-07T05:00:18.175Z,48.00
2023-01-07T05:02:50.045Z,43.20
2023-01-07T05:05:22.351Z,42.80
2023-01-07T05:07:54.521Z,39.50
2023-01-07T05:10:26.482Z,34.90
2023-01-07T05:12:58.243Z,36.60
2023-01-07T05:15:30.010Z,36.70
2023-01-07T05:18:01.833Z,32.90
2023-01-07T05:20:33.702Z,31.20
2023-01-07T05:23:06.766Z,33.60
2023-01-07T05:25:38.509Z,31.50
2023-01-07T05:28:11.978Z,30.40
2023-01-07T05:33:14.491Z,31.50
2023-01-07T05:35:48.348Z,35.30
2023-01-07T05:38:20.256Z,36.80
2023-01-07T05:40:52.124Z,36.30
2023-01-07T05:43:24.389Z,34.70
2023-01-07T05:45:57.510Z,36.80
2023-01-07T05:48:29.393Z,33.40
2023-01-07T05:51:01.225Z,37.30
2023-01-07T05:53:32.964Z,32.90
2023-01-07T05:56:05.098Z,32.40
2023-01-07T05:58:37.113Z,30.50
2023-01-07T06:01:09.063Z,29.90
2023-01-07T06:03:41.169Z,28.10
2023-01-07T06:06:12.941Z,29.70
2023-01-07T06:08:44.747Z,29.30
2023-01-07T06:11:18.568Z,32.20
2023-01-07T06:13:50.319Z,34.10
2023-01-07T06:16:22.168Z,30.20
2023-01-07T06:18:54.027Z,35.30
2023-01-07T06:21:26.017Z,33.30
2023-01-07T06:23:58.084Z,35.60
2023-01-07T06:26:29.919Z,37.50
2023-01-07T06:29:01.994Z,32.60
2023-01-07T06:31:34.089Z,36.60
2023-01-07T06:34:06.022Z,35.50
2023-01-07T06:36:37.948Z,33.80
2023-01-07T06:39:10.626Z,34.60
2023-01-07T06:41:42.318Z,37.00
2023-01-07T06:44:14.195Z,38.40
2023-01-07T06:46:46.083Z,32.40
2023-01-07T06:49:17.835Z,36.60
2023-01-07T06:51:49.645Z,39.00
2023-01-07T06:54:21.313Z,43.40
2023-01-07T06:56:53.364Z,51.00
2023-01-07T06:59:25.355Z,40.30
2023-01-07T07:01:57.289Z,45.20
2023-01-07T07:04:29.114Z,38.80
2023-01-07T07:07:00.948Z,40.10
2023-01-07T07:09:32.700Z,43.10
2023-01-07T07:12:04.915Z,46.50
2023-01-07T07:14:36.900Z,50.00
2023-01-07T07:17:09.030Z,50.00
2023-01-07T07:19:40.818Z,54.90
2023-01-07T07:22:12.648Z,51.20
2023-01-07T07:24:44.487Z,47.70
2023-01-07T07:27:16.455Z,45.80
2023-01-07T07:29:48.225Z,47.20
2023-01-07T07:32:19.977Z,48.40
2023-01-07T07:34:51.682Z,50.20
2023-01-07T07:37:23.835Z,50.10
2023-01-07T07:39:55.647Z,56.40
2023-01-07T07:42:27.501Z,56.40
2023-01-07T07:44:59.300Z,52.60
2023-01-07T07:47:31.094Z,54.00
2023-01-07T07:50:02.925Z,55.00
2023-01-07T07:52:36.846Z,47.20
2023-01-07T07:55:20.207Z,51.60
2023-01-07T07:57:55.863Z,49.20
2023-01-07T08:00:27.955Z,71.10
2023-01-07T08:03:01.893Z,67.00
2023-01-07T08:05:33.857Z,61.00
2023-01-07T08:08:06.287Z,58.10
2023-01-07T08:10:38.404Z,59.00
2023-01-07T08:13:10.989Z,51.10
2023-01-07T08:15:42.747Z,54.10
2023-01-07T08:18:14.482Z,51.80
2023-01-07T08:20:46.296Z,51.60
2023-01-07T08:23:18.063Z,49.70
2023-01-07T08:25:50.121Z,47.80
2023-01-07T08:28:21.877Z,48.60
2023-01-07T08:30:53.714Z,50.80
2023-01-07T08:33:25.563Z,75.90
2023-01-07T08:35:57.335Z,76.40
2023-01-07T08:38:31.511Z,71.90
2023-01-07T08:41:04.303Z,70.90
2023-01-07T08:43:36.239Z,71.70
2023-01-07T08:46:08.406Z,67.30
2023-01-07T08:48:40.269Z,60.10
2023-01-07T08:51:12.172Z,76.80
2023-01-07T08:53:43.879Z,73.00
2023-01-07T08:56:15.806Z,73.40
2023-01-07T08:58:48.585Z,78.70
2023-01-07T09:01:20.492Z,66.30
2023-01-07T09:03:52.627Z,65.00
2023-01-07T09:06:24.509Z,58.30
2023-01-07T09:08:56.352Z,61.40
2023-01-07T09:11:28.315Z,60.20
2023-01-07T09:14:00.275Z,57.30
2023-01-07T09:16:32.062Z,60.30
2023-01-07T09:19:04.109Z,58.50
2023-01-07T09:21:35.871Z,62.20
2023-01-07T09:24:08.559Z,72.70
2023-01-07T09:26:40.407Z,60.60
2023-01-07T09:29:12.433Z,65.20
2023-01-07T09:31:44.312Z,64.90
2023-01-07T09:34:16.389Z,54.60
2023-01-07T09:36:48.342Z,56.20
2023-01-07T09:39:20.117Z,49.20
2023-01-07T09:42:02.003Z,63.30
2023-01-07T09:44:50.342Z,44.20
2023-01-07T09:47:25.906Z,56.20
2023-01-07T09:50:05.988Z,55.30
2023-01-07T09:52:42.754Z,46.90
2023-01-07T09:55:25.282Z,42.30
2023-01-07T09:57:57.209Z,40.20
2023-01-07T10:00:30.788Z,48.10
2023-01-07T10:03:18.671Z,38.80
2023-01-07T10:06:02.216Z,25.20
2023-01-07T10:08:46.948Z,21.00
2023-01-07T10:11:33.047Z,19.90
2023-01-07T10:14:33.908Z,19.00
2023-01-07T10:17:15.893Z,18.40
2023-01-07T10:21:57.133Z,23.30
2023-01-07T10:24:33.424Z,22.00
2023-01-07T10:27:11.093Z,22.20
2023-01-07T10:29:48.933Z,18.80
2023-01-07T10:32:23.782Z,17.60
2023-01-07T10:35:00.130Z,19.30
2023-01-07T10:37:34.112Z,19.60
2023-01-07T10:40:26.230Z,21.00
2023-01-07T10:43:05.359Z,19.90
2023-01-07T10:45:59.124Z,20.10
2023-01-07T10:48:44.972Z,17.30
2023-01-07T10:51:39.902Z,17.40
2023-01-07T10:54:26.249Z,19.40
2023-01-07T10:57:02.487Z,13.80
2023-01-07T10:59:34.492Z,15.20
2023-01-07T11:02:16.041Z,12.70
2023-01-07T11:04:48.436Z,12.50
2023-01-07T11:07:43.457Z,11.30
2023-01-07T11:10:20.935Z,10.00
2023-01-07T11:12:55.282Z,11.80
2023-01-07T11:15:31.540Z,11.70
2023-01-07T11:18:06.658Z,9.00
2023-01-07T11:20:55.357Z,7.20
2023-01-07T11:23:38.701Z,8.10
2023-01-07T11:26:17.362Z,8.30
2023-01-07T11:28:57.884Z,9.10
2023-01-07T11:31:49.628Z,9.60
2023-01-07T11:34:26.909Z,9.80
2023-01-07T11:36:59.104Z,8.90
2023-01-07T11:39:32.980Z,9.50
2023-01-07T11:42:35.583Z,8.60
2023-01-07T11:45:19.039Z,8.40
2023-01-07T11:47:57.680Z,7.10
2023-01-07T11:50:35.769Z,6.60
2023-01-07T11:53:22.547Z,9.80
2023-01-07T11:56:02.956Z,6.70
2023-01-07T11:58:36.307Z,9.40
2023-01-07T12:01:19.177Z,7.90
2023-01-07T12:06:58.633Z,6.80
2023-01-07T12:09:41.928Z,5.60
2023-01-07T12:12:37.142Z,6.80
2023-01-07T12:15:21.021Z,9.30
2023-01-07T12:18:09.429Z,9.80
2023-01-07T12:21:02.892Z,8.30
2023-01-07T12:23:43.154Z,7.90
2023-01-07T12:26:20.223Z,6.70
2023-01-07T12:29:07.177Z,4.70
2023-01-07T12:31:48.804Z,6.80
2023-01-07T12:34:35.711Z,6.30
2023-01-07T12:37:21.712Z,5.90
2023-01-07T12:39:59.216Z,7.20
2023-01-07T12:42:37.000Z,5.50
2023-01-07T12:45:20.286Z,6.70
2023-01-07T12:47:59.431Z,5.00
2023-01-07T12:50:36.515Z,7.10
2023-01-07T12:53:17.969Z,7.90
2023-01-07T12:58:13.180Z,6.40
2023-01-07T13:00:51.245Z,7.20
2023-01-07T13:03:35.892Z,5.70
2023-01-07T13:06:15.511Z,7.30
2023-01-07T13:08:52.918Z,9.20
2023-01-07T13:11:45.420Z,7.30
2023-01-07T13:14:25.218Z,7.90
2023-01-07T13:17:12.484Z,7.50
2023-01-07T13:19:44.298Z,7.50
2023-01-07T13:22:26.429Z,8.50
2023-01-07T13:26:40.790Z,8.20
2023-01-07T13:29:23.733Z,6.70
2023-01-07T13:32:16.666Z,7.90
2023-01-07T13:36:28.208Z,7.90
2023-01-07T13:40:37.982Z,8.00
2023-01-07T13:45:21.389Z,8.00
2023-01-07T13:47:56.755Z,9.10
2023-01-07T13:50:36.474Z,7.50
2023-01-07T13:53:29.059Z,7.20
2023-01-07T13:56:59.598Z,9.10
2023-01-07T14:02:51.760Z,11.00
2023-01-07T14:06:42.577Z,11.70
2023-01-07T14:09:37.106Z,14.10
2023-01-07T14:15:12.481Z,17.60
2023-01-07T14:17:55.738Z,14.00
2023-01-07T14:24:58.960Z,17.70
2023-01-07T14:28:33.988Z,18.30
2023-01-07T14:31:06.429Z,19.90
2023-01-07T14:33:41.582Z,18.90
2023-01-07T14:39:30.569Z,18.90
2023-01-07T14:42:52.106Z,20.80
2023-01-07T14:45:55.346Z,19.00
2023-01-07T14:48:38.523Z,22.70
2023-01-07T14:51:34.422Z,31.90
2023-01-07T14:54:36.091Z,30.90
2023-01-07T14:57:25.654Z,27.60
2023-01-07T15:00:14.253Z,27.00
2023-01-07T15:03:35.393Z,33.10
2023-01-07T15:06:20.874Z,29.00
2023-01-07T15:09:12.568Z,35.30
2023-01-07T15:12:04.317Z,29.60
2023-01-07T15:14:58.469Z,31.90
2023-01-07T15:20:05.175Z,30.00
2023-01-07T15:22:59.647Z,35.00
2023-01-07T15:25:47.147Z,32.60
2023-01-07T15:28:29.509Z,32.70
2023-01-07T15:31:10.090Z,31.80
2023-01-07T15:34:01.139Z,33.30
2023-01-07T15:36:33.942Z,29.40
2023-01-07T15:39:07.370Z,32.80
2023-01-07T15:41:40.934Z,30.70
2023-01-07T15:44:21.711Z,31.20
2023-01-07T15:46:53.735Z,31.70
2023-01-07T15:49:26.584Z,31.50
2023-01-07T15:52:00.146Z,33.90
2023-01-07T15:54:35.544Z,35.20
2023-01-07T15:57:11.508Z,34.00
2023-01-07T15:59:45.865Z,37.50
2023-01-07T16:02:29.173Z,36.50
2023-01-07T16:05:04.598Z,44.50
2023-01-07T16:07:38.767Z,51.20
2023-01-07T16:10:22.374Z,62.10
2023-01-07T16:12:56.041Z,59.00
2023-01-07T16:15:32.797Z,66.30
2023-01-07T16:18:18.920Z,66.40
2023-01-07T16:20:56.304Z,57.80
2023-01-07T16:23:30.510Z,58.70
2023-01-07T16:26:06.927Z,57.40
2023-01-07T16:28:42.802Z,63.10
2023-01-07T16:31:17.978Z,60.90
2023-01-07T16:33:51.959Z,59.30
2023-01-07T16:36:28.310Z,55.90
2023-01-07T16:39:05.346Z,57.70
2023-01-07T16:41:37.973Z,55.70
2023-01-07T16:44:58.943Z,57.40
2023-01-07T16:47:32.809Z,62.30
2023-01-07T16:50:38.643Z,64.20
2023-01-07T16:53:26.390Z,67.20
2023-01-07T16:59:53.690Z,76.50
2023-01-07T17:02:32.249Z,75.10
2023-01-07T17:05:19.522Z,65.90
2023-01-07T17:07:54.674Z,71.70
2023-01-07T17:10:29.800Z,74.40
2023-01-07T17:13:04.171Z,63.20
2023-01-07T17:15:40.422Z,70.20
2023-01-07T17:18:31.661Z,77.60
2023-01-07T17:21:03.998Z,75.20
2023-01-07T17:23:45.432Z,82.20
2023-01-07T17:26:22.703Z,82.10
2023-01-07T17:28:57.314Z,86.50
2023-01-07T17:31:29.630Z,86.50
2023-01-07T17:34:01.412Z,94.60
2023-01-07T17:36:35.280Z,94.50
2023-01-07T17:39:07.200Z,87.40
2023-01-07T17:41:57.390Z,74.80
2023-01-07T17:44:29.132Z,77.00
2023-01-07T17:47:00.860Z,76.40
2023-01-07T17:49:32.531Z,76.30
2023-01-07T17:52:04.605Z,80.70
2023-01-07T17:54:36.779Z,72.30
2023-01-07T17:57:09.284Z,75.30
2023-01-07T17:59:47.469Z,77.80
2023-01-07T18:02:24.593Z,73.30
2023-01-07T18:04:57.755Z,83.00
2023-01-07T18:07:29.439Z,74.20
2023-01-07T18:10:01.288Z,88.60
2023-01-07T18:12:34.769Z,93.30
2023-01-07T18:15:14.210Z,96.20
2023-01-07T18:17:46.181Z,102.40
2023-01-07T18:20:19.497Z,106.50
2023-01-07T18:22:51.585Z,125.40
2023-01-07T18:25:24.268Z,112.50
2023-01-07T18:27:56.805Z,114.20
2023-01-07T18:30:28.674Z,107.10
2023-01-07T18:33:00.414Z,119.80
2023-01-07T18:35:32.314Z,119.00
2023-01-07T18:38:04.476Z,124.40
2023-01-07T18:40:37.650Z,112.50
2023-01-07T18:43:11.456Z,122.40
2023-01-07T18:45:45.212Z,124.20
2023-01-07T18:48:19.454Z,115.40
2023-01-07T18:50:52.354Z,101.30
2023-01-07T18:53:26.900Z,100.70
2023-01-07T18:56:02.842Z,96.10
2023-01-07T18:58:34.849Z,95.00
2023-01-07T19:01:08.397Z,101.70
2023-01-07T19:06:12.602Z,97.20
2023-01-07T19:08:44.368Z,93.10
2023-01-07T19:11:16.896Z,111.60
2023-01-07T19:13:48.751Z,126.70
2023-01-07T19:16:20.705Z,133.80
2023-01-07T19:18:53.634Z,139.80
2023-01-07T19:21:26.735Z,152.10
2023-01-07T19:23:58.917Z,147.10
2023-01-07T19:26:31.003Z,155.00
2023-01-07T19:29:03.473Z,150.30
2023-01-07T19:31:35.301Z,143.20
2023-01-07T19:34:07.778Z,145.40
2023-01-07T19:36:41.799Z,142.00
2023-01-07T19:39:15.736Z,134.70
2023-01-07T19:41:47.826Z,135.20
2023-01-07T19:44:19.709Z,127.30
2023-01-07T19:46:51.714Z,115.00
2023-01-07T19:49:23.814Z,111.60
2023-01-07T19:51:55.777Z,104.30
2023-01-07T19:54:27.628Z,117.90
2023-01-07T19:56:59.607Z,105.50
2023-01-07T19:59:33.873Z,108.20
2023-01-07T20:02:06.280Z,118.40
2023-01-07T20:04:40.382Z,107.40
2023-01-07T20:07:12.361Z,127.10
2023-01-07T20:09:44.175Z,129.40
2023-01-07T20:12:16.194Z,145.60
2023-01-07T20:14:48.656Z,134.10
2023-01-07T20:17:20.628Z,139.30
2023-01-07T20:19:52.459Z,144.40
2023-01-07T20:22:24.465Z,136.00
2023-01-07T20:24:56.519Z,142.60
2023-01-07T20:27:28.597Z,149.20
2023-01-07T20:30:00.524Z,142.80
2023-01-07T20:32:32.731Z,142.40
2023-01-07T20:35:05.301Z,150.40
2023-01-07T20:37:37.181Z,175.80
2023-01-07T20:40:11.135Z,154.70
2023-01-07T20:42:42.875Z,128.80
2023-01-07T20:45:15.716Z,108.40
2023-01-07T20:47:47.853Z,125.40
2023-01-07T20:50:20.048Z,119.90
2023-01-07T20:52:52.143Z,128.70
2023-01-07T20:55:23.951Z,126.40
2023-01-07T20:57:55.913Z,122.50
2023-01-07T21:00:28.355Z,116.30
2023-01-07T21:03:00.399Z,134.00
2023-01-07T21:05:32.441Z,149.60
2023-01-07T21:08:04.438Z,158.80
2023-01-07T21:10:39.417Z,152.00
2023-01-07T21:13:11.223Z,158.60
2023-01-07T21:15:43.003Z,156.10
2023-01-07T21:18:15.253Z,154.90
2023-01-07T21:20:47.975Z,156.30
2023-01-07T21:23:19.793Z,179.60
2023-01-07T21:25:51.647Z,175.30
2023-01-07T21:28:23.629Z,190.80
2023-01-07T21:30:55.497Z,188.70
2023-01-07T21:33:27.300Z,186.20
2023-01-07T21:35:59.055Z,158.20
2023-01-07T21:38:30.841Z,141.60
2023-01-07T21:41:08.458Z,143.80
2023-01-07T21:43:40.644Z,142.10
2023-01-07T21:46:13.119Z,148.70
2023-01-07T21:48:47.215Z,139.80
2023-01-07T21:51:22.192Z,141.80
2023-01-07T21:53:55.887Z,156.10
2023-01-07T21:56:32.136Z,130.60
2023-01-07T21:59:03.946Z,153.00
2023-01-07T22:01:35.982Z,157.00
2023-01-07T22:04:08.269Z,187.70
2023-01-07T22:06:40.060Z,157.60
2023-01-07T22:09:16.645Z,157.30
2023-01-07T22:11:48.531Z,163.60
2023-01-07T22:14:23.119Z,158.50
2023-01-07T22:16:54.919Z,161.70
2023-01-07T22:19:28.447Z,155.00
2023-01-07T22:24:30.353Z,139.00
2023-01-07T22:27:02.344Z,165.30
2023-01-07T22:29:34.370Z,152.20
2023-01-07T22:32:06.632Z,139.20
2023-01-07T22:34:38.522Z,121.20
2023-01-07T22:37:13.741Z,122.20
2023-01-07T22:39:49.884Z,122.70
2023-01-07T22:42:25.510Z,122.90
2023-01-07T22:45:02.373Z,122.40
2023-01-07T22:47:39.428Z,116.30
2023-01-07T22:50:14.508Z,124.70
2023-01-07T22:52:47.051Z,120.50
2023-01-07T22:55:19.064Z,116.50
2023-01-07T22:57:50.876Z,129.60
2023-01-07T23:00:42.930Z,126.20
2023-01-07T23:03:14.632Z,134.40
2023-01-07T23:05:46.491Z,125.50
2023-01-07T23:08:18.699Z,124.60
2023-01-07T23:10:50.564Z,126.80
2023-01-07T23:13:22.501Z,133.70
2023-01-07T23:15:54.224Z,135.70
2023-01-07T23:18:25.952Z,125.00
2023-01-07T23:20:58.214Z,140.70
2023-01-07T23:23:31.271Z,131.20
2023-01-07T23:26:03.136Z,138.80
2023-01-07T23:28:34.923Z,113.70
2023-01-07T23:31:07.270Z,110.80
2023-01-07T23:33:39.078Z,103.80
2023-01-07T23:36:12.731Z,103.80
2023-01-07T23:38:44.898Z,103.90
2023-01-07T23:41:16.962Z,110.40
2023-01-07T23:43:49.392Z,106.20
2023-01-07T23:46:21.218Z,114.10
2023-01-07T23:48:53.053Z,114.70
2023-01-07T23:51:25.084Z,117.00
2023-01-07T23:53:56.928Z,122.00
2023-01-07T23:56:28.849Z,125.80
2023-01-07T23:59:02.888Z,132.80
